createdAt,value
2018-03-16T00:01:22.527Z,61.64
2018-03-16T00:03:49.564Z,61.32
2018-03-16T00:06:16.544Z,61.36
2018-03-16T00:08:42.889Z,61.00
2018-03-16T00:11:09.160Z,60.64
2018-03-16T00:13:35.464Z,60.49
2018-03-16T00:16:01.841Z,60.77
2018-03-16T00:18:28.866Z,61.07
2018-03-16T00:20:55.159Z,60.84
2018-03-16T00:23:21.482Z,60.73
2018-03-16T00:25:47.847Z,60.48
2018-03-16T00:28:14.115Z,60.64
2018-03-16T00:30:41.142Z,60.23
2018-03-16T00:33:07.461Z,60.22
2018-03-16T00:35:33.789Z,60.29
2018-03-16T00:38:00.087Z,61.03
2018-03-16T00:40:26.447Z,60.87
2018-03-16T00:42:52.769Z,60.67
2018-03-16T00:45:19.109Z,60.68
2018-03-16T00:47:45.446Z,60.24
2018-03-16T00:50:11.768Z,60.76
2018-03-16T00:52:38.016Z,60.91
2018-03-16T00:55:04.288Z,60.62
2018-03-16T00:57:31.328Z,60.27
2018-03-16T00:59:58.381Z,60.35
2018-03-16T01:02:24.707Z,60.64
2018-03-16T01:04:51.793Z,60.59
2018-03-16T01:07:18.101Z,59.86
2018-03-16T01:09:44.396Z,59.92
2018-03-16T01:12:10.707Z,60.01
2018-03-16T01:14:36.990Z,60.04
2018-03-16T01:17:03.265Z,60.70
2018-03-16T01:19:29.569Z,60.46
2018-03-16T01:21:55.836Z,60.23
2018-03-16T01:24:22.137Z,60.31
2018-03-16T01:26:48.472Z,60.82
2018-03-16T01:29:14.759Z,60.39
2018-03-16T01:31:41.072Z,60.48
2018-03-16T01:34:07.372Z,60.59
2018-03-16T01:36:33.656Z,60.33
2018-03-16T01:38:59.984Z,60.08
2018-03-16T01:41:27.045Z,60.14
2018-03-16T01:43:53.340Z,60.16
2018-03-16T01:46:19.652Z,60.42
2018-03-16T01:48:45.971Z,60.67
2018-03-16T01:51:12.315Z,60.27
2018-03-16T01:53:38.612Z,60.21
2018-03-16T01:56:04.942Z,59.98
2018-03-16T01:58:31.232Z,60.04
2018-03-16T02:00:57.534Z,59.65
2018-03-16T02:03:23.833Z,59.52
2018-03-16T02:05:50.412Z,58.93
2018-03-16T02:08:16.672Z,59.16
2018-03-16T02:10:43.692Z,59.78
2018-03-16T02:13:09.967Z,59.90
2018-03-16T02:15:36.247Z,59.89
2018-03-16T02:18:02.557Z,60.10
2018-03-16T02:20:28.858Z,60.23
2018-03-16T02:22:55.134Z,60.59
2018-03-16T02:25:21.453Z,60.64
2018-03-16T02:30:14.012Z,60.18
2018-03-16T02:32:40.342Z,60.05
2018-03-16T02:35:06.663Z,60.34
2018-03-16T02:37:33.945Z,60.61
2018-03-16T02:42:26.592Z,61.03
2018-03-16T02:44:52.908Z,61.03
2018-03-16T02:47:19.252Z,61.12
2018-03-16T02:49:45.610Z,61.38
2018-03-16T02:52:11.927Z,61.66
2018-03-16T02:54:38.226Z,61.63
2018-03-16T02:57:04.540Z,61.93
2018-03-16T02:59:30.805Z,62.10
2018-03-16T03:01:57.115Z,62.39
2018-03-16T03:04:23.381Z,62.74
2018-03-16T03:06:49.708Z,62.69
2018-03-16T03:09:16.013Z,62.31
2018-03-16T03:11:42.264Z,62.48
2018-03-16T03:14:08.568Z,62.34
2018-03-16T03:16:34.883Z,62.50
2018-03-16T03:19:01.225Z,62.40
2018-03-16T03:21:27.535Z,62.40
2018-03-16T03:23:54.604Z,62.20
2018-03-16T03:26:20.846Z,62.28
2018-03-16T03:28:47.208Z,62.19
2018-03-16T03:31:13.506Z,62.19
2018-03-16T03:33:39.784Z,62.10
2018-03-16T03:36:06.105Z,61.93
2018-03-16T03:38:32.437Z,62.29
2018-03-16T03:40:58.735Z,61.97
2018-03-16T03:43:25.035Z,61.99
2018-03-16T03:45:51.292Z,62.98
2018-03-16T03:48:17.614Z,63.44
2018-03-16T03:50:43.963Z,63.18
2018-03-16T03:53:10.284Z,63.24
2018-03-16T03:55:36.585Z,63.77
2018-03-16T03:58:03.649Z,64.20
2018-03-16T04:00:29.964Z,64.16
2018-03-16T04:02:57.012Z,63.85
2018-03-16T04:05:24.088Z,64.35
2018-03-16T04:07:50.361Z,64.66
2018-03-16T04:10:16.650Z,64.62
2018-03-16T04:12:43.003Z,64.72
2018-03-16T04:15:09.312Z,64.98
2018-03-16T04:17:35.588Z,64.72
2018-03-16T04:20:01.871Z,64.64
2018-03-16T04:22:28.161Z,64.85
2018-03-16T04:24:55.174Z,64.35
2018-03-16T04:27:21.479Z,64.28
2018-03-16T04:29:47.845Z,64.01
2018-03-16T04:32:14.134Z,63.84
2018-03-16T04:34:40.479Z,64.17
2018-03-16T04:37:06.835Z,64.49
2018-03-16T04:39:33.269Z,64.59
2018-03-16T04:41:59.564Z,64.27
2018-03-16T04:44:25.897Z,64.46
2018-03-16T04:46:52.226Z,64.35
2018-03-16T04:49:18.556Z,64.84
2018-03-16T04:51:44.888Z,64.97
2018-03-16T04:54:11.900Z,65.12
2018-03-16T04:56:38.982Z,65.19
2018-03-16T04:59:05.351Z,64.99
2018-03-16T05:01:31.680Z,65.50
2018-03-16T05:03:58.014Z,65.06
2018-03-16T05:06:24.334Z,64.80
2018-03-16T05:08:50.676Z,64.59
2018-03-16T05:11:16.970Z,64.95
2018-03-16T05:13:43.301Z,64.65
2018-03-16T05:16:09.636Z,64.60
2018-03-16T05:18:36.002Z,64.45
2018-03-16T05:21:02.327Z,64.55
2018-03-16T05:23:28.653Z,64.70
2018-03-16T05:25:55.003Z,64.34
2018-03-16T05:28:21.291Z,64.08
2018-03-16T05:30:47.647Z,64.64
2018-03-16T05:33:14.029Z,64.18
2018-03-16T05:35:41.086Z,64.52
2018-03-16T05:38:07.440Z,64.18
2018-03-16T05:40:33.724Z,64.65
2018-03-16T05:43:00.763Z,64.89
2018-03-16T05:45:27.056Z,64.75
2018-03-16T05:47:53.328Z,64.79
2018-03-16T05:50:19.634Z,65.10
2018-03-16T05:52:45.890Z,65.36
2018-03-16T05:55:12.936Z,65.70
2018-03-16T05:57:39.957Z,65.95
2018-03-16T06:00:06.254Z,65.61
2018-03-16T06:02:32.552Z,66.16
2018-03-16T06:04:59.650Z,66.83
2018-03-16T06:07:25.947Z,68.13
2018-03-16T06:09:52.287Z,68.61
2018-03-16T06:12:18.587Z,68.02
2018-03-16T06:14:45.702Z,67.94
2018-03-16T06:17:11.951Z,67.32
2018-03-16T06:19:38.247Z,66.56
2018-03-16T06:22:04.546Z,67.16
2018-03-16T06:24:31.544Z,67.07
2018-03-16T06:26:57.869Z,67.12
2018-03-16T06:29:24.194Z,67.49
2018-03-16T06:31:50.466Z,67.70
2018-03-16T06:34:16.792Z,68.05
2018-03-16T06:36:43.074Z,67.59
2018-03-16T06:39:09.405Z,67.75
2018-03-16T06:41:35.701Z,68.14
2018-03-16T06:44:02.733Z,69.13
2018-03-16T06:46:29.018Z,69.50
2018-03-16T06:48:55.354Z,69.42
2018-03-16T06:51:21.629Z,68.84
2018-03-16T06:53:48.647Z,68.68
2018-03-16T06:56:14.951Z,67.92
2018-03-16T06:58:41.234Z,67.92
2018-03-16T07:01:07.511Z,68.91
2018-03-16T07:03:33.795Z,68.88
2018-03-16T07:06:00.087Z,68.78
2018-03-16T07:08:26.347Z,68.89
2018-03-16T07:10:52.641Z,68.73
2018-03-16T07:13:19.498Z,68.33
2018-03-16T07:15:45.771Z,67.83
2018-03-16T07:18:12.827Z,68.14
2018-03-16T07:20:39.864Z,68.38
2018-03-16T07:23:06.898Z,67.83
2018-03-16T07:25:33.168Z,67.82
2018-03-16T07:27:59.500Z,67.54
2018-03-16T07:30:25.824Z,67.07
2018-03-16T07:32:52.258Z,67.37
2018-03-16T07:35:18.522Z,67.39
2018-03-16T07:37:44.852Z,66.91
2018-03-16T07:40:11.147Z,66.48
2018-03-16T07:42:37.453Z,66.36
2018-03-16T07:45:03.796Z,66.29
2018-03-16T07:47:30.819Z,66.82
2018-03-16T07:49:57.907Z,66.45
2018-03-16T07:52:24.195Z,66.42
2018-03-16T07:54:50.479Z,66.54
2018-03-16T07:57:16.743Z,66.26
2018-03-16T07:59:43.087Z,65.97
2018-03-16T08:02:10.292Z,65.67
2018-03-16T08:04:36.568Z,65.95
2018-03-16T08:07:02.875Z,65.29
2018-03-16T08:09:29.155Z,65.27
2018-03-16T08:11:56.246Z,65.53
2018-03-16T08:14:22.477Z,65.77
2018-03-16T08:16:48.780Z,65.29
2018-03-16T08:19:15.024Z,64.81
2018-03-16T08:21:41.312Z,64.29
2018-03-16T08:24:08.372Z,63.87
2018-03-16T08:26:34.647Z,63.38
2018-03-16T08:29:00.900Z,63.29
2018-03-16T08:31:27.231Z,63.79
2018-03-16T08:33:53.500Z,63.90
2018-03-16T08:36:19.776Z,64.10
2018-03-16T08:38:46.093Z,63.93
2018-03-16T08:41:12.387Z,63.55
2018-03-16T08:43:39.433Z,64.09
2018-03-16T08:46:05.770Z,64.15
2018-03-16T08:48:32.105Z,64.30
2018-03-16T08:50:59.128Z,63.88
2018-03-16T08:53:26.188Z,63.91
2018-03-16T08:55:53.248Z,64.12
2018-03-16T08:58:19.533Z,64.06
2018-03-16T09:00:45.837Z,64.32
2018-03-16T09:03:12.128Z,64.11
2018-03-16T09:05:39.180Z,64.13
2018-03-16T09:08:06.239Z,64.29
2018-03-16T09:10:32.528Z,64.29
2018-03-16T09:12:58.822Z,64.92
2018-03-16T09:15:25.112Z,65.13
2018-03-16T09:17:52.156Z,65.68
2018-03-16T09:20:18.435Z,65.91
2018-03-16T09:22:44.713Z,65.88
2018-03-16T09:25:11.781Z,66.28
2018-03-16T09:27:38.107Z,67.13
2018-03-16T09:30:05.147Z,66.90
2018-03-16T09:32:31.446Z,66.66
2018-03-16T09:34:57.751Z,67.27
2018-03-16T09:37:24.068Z,67.08
2018-03-16T09:39:50.328Z,66.93
2018-03-16T09:42:16.600Z,66.68
2018-03-16T09:44:43.628Z,67.07
2018-03-16T09:47:09.942Z,67.59
2018-03-16T09:49:36.238Z,67.02
2018-03-16T09:52:02.593Z,66.22
2018-03-16T09:54:28.954Z,65.85
2018-03-16T09:56:55.236Z,64.89
2018-03-16T09:59:21.556Z,64.88
2018-03-16T10:01:47.861Z,64.42
2018-03-16T10:04:14.922Z,64.71
2018-03-16T10:06:42.030Z,64.11
2018-03-16T10:09:21.295Z,63.77
2018-03-16T10:11:48.303Z,63.86
2018-03-16T10:14:14.615Z,63.85
2018-03-16T10:16:40.882Z,64.28
2018-03-16T10:19:07.207Z,63.90
2018-03-16T10:21:33.469Z,63.58
2018-03-16T10:24:00.493Z,63.40
2018-03-16T10:26:26.815Z,63.24
2018-03-16T10:28:53.097Z,62.68
2018-03-16T10:31:19.411Z,62.64
2018-03-16T10:33:45.700Z,62.10
2018-03-16T10:36:11.983Z,62.14
2018-03-16T10:38:38.260Z,62.33
2018-03-16T10:41:04.581Z,62.59
2018-03-16T10:43:30.927Z,62.77
2018-03-16T10:45:57.253Z,62.20
2018-03-16T10:48:23.552Z,62.22
2018-03-16T10:50:49.832Z,61.68
2018-03-16T10:53:16.080Z,61.95
2018-03-16T10:55:43.147Z,62.04
2018-03-16T10:58:09.493Z,62.69
2018-03-16T11:00:41.975Z,62.49
2018-03-16T11:03:08.291Z,62.71
2018-03-16T11:05:40.854Z,63.42
2018-03-16T11:08:07.182Z,63.63
2018-03-16T11:10:34.282Z,63.03
2018-03-16T11:13:00.583Z,63.22
2018-03-16T11:15:26.903Z,63.07
2018-03-16T11:17:53.211Z,61.91
2018-03-16T11:20:20.240Z,61.09
2018-03-16T11:22:46.535Z,61.37
2018-03-16T11:25:12.857Z,61.35
2018-03-16T11:27:39.164Z,60.18
2018-03-16T11:30:05.493Z,60.61
2018-03-16T11:32:31.791Z,61.44
2018-03-16T11:34:58.151Z,60.85
2018-03-16T11:37:25.246Z,61.47
2018-03-16T11:39:51.534Z,60.98
2018-03-16T11:42:18.575Z,61.19
2018-03-16T11:44:46.192Z,62.33
2018-03-16T11:47:12.476Z,62.06
2018-03-16T11:49:38.772Z,62.41
2018-03-16T11:52:05.030Z,62.78
2018-03-16T11:54:32.082Z,61.35
2018-03-16T11:56:59.093Z,62.16
2018-03-16T11:59:25.377Z,61.95
2018-03-16T12:01:51.727Z,61.57
2018-03-16T12:04:18.121Z,61.23
2018-03-16T12:06:45.143Z,61.94
2018-03-16T12:09:11.435Z,63.84
2018-03-16T12:11:37.738Z,63.61
2018-03-16T12:14:04.063Z,63.93
2018-03-16T12:16:31.077Z,66.07
2018-03-16T12:18:57.366Z,65.92
2018-03-16T12:21:23.707Z,65.72
2018-03-16T12:23:50.034Z,66.12
2018-03-16T12:26:16.323Z,66.13
2018-03-16T12:28:49.814Z,65.95
2018-03-16T12:31:09.674Z,66.45
2018-03-16T12:33:35.956Z,65.40
2018-03-16T12:36:02.275Z,66.41
2018-03-16T12:38:29.101Z,68.02
2018-03-16T12:40:56.182Z,68.37
2018-03-16T12:43:22.482Z,68.16
2018-03-16T12:45:49.555Z,68.66
2018-03-16T12:48:15.856Z,67.68
2018-03-16T12:50:42.156Z,67.78
2018-03-16T12:53:08.456Z,66.17
2018-03-16T12:55:34.783Z,65.98
2018-03-16T12:58:01.110Z,64.27
2018-03-16T13:00:27.441Z,64.74
2018-03-16T13:02:53.809Z,65.53
2018-03-16T13:05:20.129Z,65.00
2018-03-16T13:07:46.434Z,64.04
2018-03-16T13:10:12.747Z,63.94
2018-03-16T13:12:39.820Z,64.16
2018-03-16T13:15:06.190Z,64.19
2018-03-16T13:17:32.511Z,65.45
2018-03-16T13:19:58.888Z,65.14
2018-03-16T13:22:26.008Z,64.86
2018-03-16T13:24:52.362Z,67.53
2018-03-16T13:27:19.434Z,68.21
2018-03-16T13:29:45.764Z,68.64
2018-03-16T13:32:12.068Z,68.22
2018-03-16T13:34:39.121Z,69.03
2018-03-16T13:37:06.179Z,68.61
2018-03-16T13:39:33.258Z,66.99
2018-03-16T13:41:59.537Z,67.60
2018-03-16T13:44:25.858Z,68.31
2018-03-16T13:46:52.200Z,67.07
2018-03-16T13:49:18.548Z,66.57
2018-03-16T13:51:45.651Z,66.21
2018-03-16T13:54:11.972Z,66.17
2018-03-16T13:56:38.314Z,66.51
2018-03-16T13:59:04.689Z,66.14
2018-03-16T14:01:31.700Z,64.89
2018-03-16T14:03:58.062Z,65.45
2018-03-16T14:06:25.172Z,66.44
2018-03-16T14:08:51.456Z,67.04
2018-03-16T14:11:18.541Z,65.56
2018-03-16T14:13:44.824Z,65.99
2018-03-16T14:16:11.997Z,66.81
2018-03-16T14:18:38.265Z,66.60
2018-03-16T14:21:04.559Z,67.81
2018-03-16T14:23:30.840Z,69.74
2018-03-16T14:25:57.173Z,69.26
2018-03-16T14:28:23.475Z,70.78
2018-03-16T14:30:49.775Z,70.60
2018-03-16T14:33:16.808Z,69.94
2018-03-16T14:35:43.876Z,69.13
2018-03-16T14:38:10.205Z,68.76
2018-03-16T14:40:36.497Z,69.74
2018-03-16T14:43:03.813Z,68.85
2018-03-16T14:45:30.148Z,68.47
2018-03-16T14:47:56.430Z,68.37
2018-03-16T14:50:23.527Z,68.62
2018-03-16T14:52:49.854Z,68.68
2018-03-16T14:55:16.280Z,67.98
2018-03-16T14:57:42.594Z,67.61
2018-03-16T15:00:09.729Z,68.08
2018-03-16T15:02:36.744Z,68.64
2018-03-16T15:05:03.075Z,69.13
2018-03-16T15:07:29.647Z,70.06
2018-03-16T15:09:56.722Z,69.69
2018-03-16T15:12:23.077Z,69.30
2018-03-16T15:14:49.391Z,68.26
2018-03-16T15:17:15.752Z,67.69
2018-03-16T15:19:42.047Z,68.51
2018-03-16T15:22:09.373Z,68.80
2018-03-16T15:24:36.406Z,67.66
2018-03-16T15:27:02.748Z,66.99
2018-03-16T15:29:29.865Z,68.73
2018-03-16T15:31:56.204Z,67.00
2018-03-16T15:34:22.560Z,67.18
2018-03-16T15:36:48.960Z,67.31
2018-03-16T15:39:15.327Z,66.82
2018-03-16T15:41:42.366Z,68.60
2018-03-16T15:44:08.679Z,67.80
2018-03-16T15:46:35.001Z,68.74
2018-03-16T15:49:01.430Z,68.89
2018-03-16T15:51:27.669Z,70.50
2018-03-16T15:53:55.496Z,71.34
2018-03-16T15:56:21.781Z,71.44
2018-03-16T15:58:48.083Z,71.54
2018-03-16T16:01:14.515Z,71.34
2018-03-16T16:03:40.715Z,72.26
2018-03-16T16:06:07.034Z,71.79
2018-03-16T16:08:33.365Z,72.63
2018-03-16T16:10:59.715Z,73.12
2018-03-16T16:13:26.012Z,72.71
2018-03-16T16:15:53.048Z,72.80
2018-03-16T16:18:19.374Z,70.96
2018-03-16T16:20:45.676Z,70.99
2018-03-16T16:23:12.088Z,71.47
2018-03-16T16:25:38.379Z,71.06
2018-03-16T16:28:04.725Z,70.25
2018-03-16T16:30:31.004Z,71.58
2018-03-16T16:32:57.334Z,71.54
2018-03-16T16:35:23.632Z,70.56
2018-03-16T16:37:49.957Z,70.94
2018-03-16T16:40:16.953Z,70.96
2018-03-16T16:42:43.285Z,70.27
2018-03-16T16:45:09.633Z,69.82
2018-03-16T16:47:35.940Z,70.18
2018-03-16T16:50:02.265Z,68.67
2018-03-16T16:52:28.609Z,68.35
2018-03-16T16:54:54.986Z,67.59
2018-03-16T16:57:21.265Z,68.15
2018-03-16T16:59:47.680Z,68.04
2018-03-16T17:02:13.985Z,68.63
2018-03-16T17:04:40.982Z,68.89
2018-03-16T17:07:07.235Z,69.22
2018-03-16T17:09:33.562Z,69.21
2018-03-16T17:11:59.854Z,69.37
2018-03-16T17:14:26.218Z,68.40
2018-03-16T17:16:52.542Z,68.83
2018-03-16T17:19:18.838Z,69.96
2018-03-16T17:21:45.190Z,69.38
2018-03-16T17:24:11.516Z,69.02
2018-03-16T17:26:37.937Z,69.45
2018-03-16T17:29:04.232Z,68.87
2018-03-16T17:31:30.506Z,68.36
2018-03-16T17:33:56.848Z,67.79
2018-03-16T17:36:23.168Z,67.63
2018-03-16T17:38:49.505Z,67.56
2018-03-16T17:41:15.867Z,68.23
2018-03-16T17:43:42.230Z,68.44
2018-03-16T17:46:08.591Z,67.64
2018-03-16T17:48:34.913Z,68.00
2018-03-16T17:51:01.203Z,67.82
2018-03-16T17:53:28.322Z,67.52
2018-03-16T17:55:54.573Z,70.13
2018-03-16T17:58:20.870Z,69.34
2018-03-16T18:00:47.197Z,69.49
2018-03-16T18:03:13.550Z,69.14
2018-03-16T18:05:39.841Z,67.85
2018-03-16T18:08:06.174Z,67.87
2018-03-16T18:10:32.480Z,67.83
2018-03-16T18:12:59.532Z,68.97
2018-03-16T18:15:26.609Z,69.08
2018-03-16T18:17:52.975Z,68.62
2018-03-16T18:20:19.272Z,68.82
2018-03-16T18:22:45.642Z,69.37
2018-03-16T18:25:11.980Z,69.95
2018-03-16T18:27:38.276Z,69.22
2018-03-16T18:30:04.622Z,69.79
2018-03-16T18:32:31.029Z,69.51
2018-03-16T18:34:57.313Z,69.30
2018-03-16T18:37:23.603Z,70.23
2018-03-16T18:39:49.939Z,69.73
2018-03-16T18:42:16.295Z,69.77
2018-03-16T18:44:42.657Z,69.56
2018-03-16T18:47:09.823Z,68.62
2018-03-16T18:49:36.222Z,69.49
2018-03-16T18:52:02.530Z,69.71
2018-03-16T18:54:28.941Z,70.00
2018-03-16T18:56:55.324Z,70.31
2018-03-16T18:59:23.148Z,69.77
2018-03-16T19:01:49.559Z,69.87
2018-03-16T19:04:16.072Z,69.76
2018-03-16T19:06:43.199Z,70.05
2018-03-16T19:09:09.538Z,70.57
2018-03-16T19:11:35.838Z,70.46
2018-03-16T19:14:02.192Z,71.15
2018-03-16T19:16:28.527Z,71.96
2018-03-16T19:18:55.056Z,71.67
2018-03-16T19:21:21.525Z,71.47
2018-03-16T19:23:48.583Z,71.64
2018-03-16T19:26:14.919Z,71.52
2018-03-16T19:28:41.265Z,71.77
2018-03-16T19:31:07.621Z,70.75
2018-03-16T19:33:33.997Z,71.36
2018-03-16T19:36:01.072Z,70.96
2018-03-16T19:38:27.443Z,71.23
2018-03-16T19:40:53.736Z,70.13
2018-03-16T19:43:20.156Z,70.17
2018-03-16T19:45:47.182Z,70.37
2018-03-16T19:48:14.257Z,70.01
2018-03-16T19:50:40.624Z,71.51
2018-03-16T19:53:06.929Z,71.36
2018-03-16T19:55:33.261Z,70.67
2018-03-16T19:57:59.584Z,71.63
2018-03-16T20:00:25.983Z,72.26
2018-03-16T20:02:53.131Z,72.59
2018-03-16T20:05:20.178Z,71.96
2018-03-16T20:07:47.246Z,71.96
2018-03-16T20:10:13.605Z,71.90
2018-03-16T20:12:39.934Z,72.29
2018-03-16T20:15:06.291Z,71.51
2018-03-16T20:17:32.671Z,71.54
2018-03-16T20:19:59.036Z,70.71
2018-03-16T20:22:25.527Z,70.86
2018-03-16T20:24:52.580Z,70.78
2018-03-16T20:27:19.759Z,69.97
2018-03-16T20:29:46.092Z,70.07
2018-03-16T20:32:12.420Z,70.18
2018-03-16T20:34:38.743Z,69.44
2018-03-16T20:37:05.125Z,69.05
2018-03-16T20:39:31.573Z,69.38
2018-03-16T20:41:57.909Z,68.94
2018-03-16T20:44:25.040Z,68.66
2018-03-16T20:46:51.451Z,69.02
2018-03-16T20:49:18.897Z,68.99
2018-03-16T20:51:45.193Z,68.75
2018-03-16T20:54:12.250Z,67.74
2018-03-16T20:56:39.315Z,68.31
2018-03-16T20:59:05.599Z,68.44
2018-03-16T21:01:32.026Z,67.87
2018-03-16T21:03:58.344Z,68.56
2018-03-16T21:06:24.649Z,68.17
2018-03-16T21:08:50.958Z,67.05
2018-03-16T21:11:17.289Z,68.91
2018-03-16T21:13:43.638Z,69.26
2018-03-16T21:16:09.932Z,69.27
2018-03-16T21:18:37.005Z,69.63
2018-03-16T21:21:03.336Z,68.86
2018-03-16T21:23:29.638Z,68.91
2018-03-16T21:25:56.753Z,67.72
2018-03-16T21:28:30.146Z,69.02
2018-03-16T21:30:56.503Z,68.48
2018-03-16T21:33:22.784Z,68.28
2018-03-16T21:35:49.135Z,69.55
2018-03-16T21:38:15.424Z,69.20
2018-03-16T21:40:42.474Z,69.72
2018-03-16T21:43:09.520Z,69.09
2018-03-16T21:45:35.848Z,68.85
2018-03-16T21:48:02.889Z,69.54
2018-03-16T21:50:29.970Z,69.78
2018-03-16T21:53:03.555Z,70.14
2018-03-16T21:55:30.797Z,70.17
2018-03-16T21:57:57.856Z,70.53
2018-03-16T22:00:24.218Z,70.74
2018-03-16T22:02:50.572Z,70.23
2018-03-16T22:05:16.995Z,70.39
2018-03-16T22:07:43.355Z,70.51
2018-03-16T22:10:09.667Z,70.59
2018-03-16T22:12:35.982Z,69.97
2018-03-16T22:15:02.268Z,70.85
2018-03-16T22:17:28.571Z,71.73
2018-03-16T22:19:54.871Z,71.38
2018-03-16T22:22:21.191Z,71.04
2018-03-16T22:24:47.455Z,71.43
2018-03-16T22:27:13.768Z,71.12
2018-03-16T22:29:40.047Z,72.00
2018-03-16T22:32:07.134Z,73.17
2018-03-16T22:34:33.475Z,73.23
2018-03-16T22:36:59.791Z,73.53
2018-03-16T22:39:26.087Z,73.21
2018-03-16T22:41:53.158Z,72.68
2018-03-16T22:44:19.473Z,72.08
2018-03-16T22:46:46.513Z,71.76
2018-03-16T22:49:12.801Z,71.91
2018-03-16T22:51:39.076Z,72.50
2018-03-16T22:54:06.110Z,71.34
2018-03-16T22:56:32.418Z,70.98
2018-03-16T22:58:58.718Z,70.15
2018-03-16T23:01:25.008Z,70.16
2018-03-16T23:03:52.071Z,70.61
2018-03-16T23:06:18.349Z,70.85
2018-03-16T23:08:44.653Z,71.07
2018-03-16T23:11:10.973Z,71.27
2018-03-16T23:13:37.262Z,70.82
2018-03-16T23:16:03.628Z,71.05
2018-03-16T23:18:29.961Z,71.44
2018-03-16T23:20:56.269Z,71.77
2018-03-16T23:23:23.292Z,70.83
2018-03-16T23:25:49.606Z,71.33
2018-03-16T23:28:15.875Z,71.64
2018-03-16T23:30:42.165Z,71.32
2018-03-16T23:33:08.452Z,70.89
2018-03-16T23:35:34.799Z,70.95
2018-03-16T23:38:01.108Z,71.08
2018-03-16T23:40:28.119Z,70.76
2018-03-16T23:42:54.432Z,70.79
2018-03-16T23:45:20.706Z,71.56
2018-03-16T23:47:46.996Z,72.25
2018-03-16T23:50:13.260Z,72.93
2018-03-16T23:52:39.566Z,72.10
2018-03-16T23:55:05.852Z,70.99
2018-03-16T23:57:32.136Z,71.22
2018-03-16T23:59:58.438Z,71.03
